Wednesday, June 20, 2018, 7:48 AM GMT
Back to Local

CYFC, Fredericton, N. B.

Location: , , Canada Lat: 45.867
Local Time: 7:48 AM GMT ( 7:48 GMT) Lon: -66.533
Time Zone: GMT Elev: 55 ft

Show me the last for .
Show Decoded

2018-06-20 07:00 METAR CYFC 200700Z AUTO VRB02KT 9SM CLR 07/07 A2974 RMK SLP072 =
2018-06-20 06:00 METAR CYFC 200600Z AUTO 23004KT 9SM CLR 08/08 A2974 RMK SLP073 =
2018-06-20 05:00 METAR CYFC 200500Z AUTO 26004KT 9SM CLR 09/08 A2974 RMK SLP072 =
2018-06-20 04:00 METAR CYFC 200400Z AUTO 27005KT 9SM CLR 11/09 A2974 RMK SLP072 =
2018-06-20 03:00 METAR CYFC 200300Z AUTO 26004KT 9SM CLR 13/08 A2973 RMK SLP069 =
2018-06-20 02:00 METAR CYFC 200200Z AUTO 22005KT 9SM CLR 14/09 A2972 RMK SLP065 DENSITY ALT 100FT
                 =
2018-06-20 01:00 METAR CYFC 200100Z AUTO 23005KT 9SM CLR 15/08 A2971 RMK SLP061 DENSITY ALT 300FT
                 =
2018-06-20 00:00 METAR CYFC 200000Z AUTO 29004KT 260V330 9SM FEW065 18/08 A2968 RMK SLP053
                 DENSITY ALT 700FT =
2018-06-19 23:00 METAR CYFC 192300Z AUTO 30012G18KT 9SM SCT065 20/08 A2966 RMK SLP045 DENSITY ALT
                 900FT =
2018-06-19 22:00 METAR CYFC 192200Z AUTO 31010G17KT 9SM BKN065 20/08 A2964 RMK SLP039 DENSITY ALT
                 1000FT =
2018-06-19 21:00 METAR CYFC 192100Z AUTO 32014G27KT 9SM BKN065 20/08 A2962 RMK SLP033 DENSITY ALT
                 1000FT =
2018-06-19 20:00 METAR CYFC 192000Z AUTO 31016G25KT 260V330 9SM BKN065 20/07 A2961 RMK SLP027
                 DENSITY ALT 900FT =
2018-06-19 19:00 METAR CYFC 191900Z AUTO 31014G19KT 260V330 9SM FEW055 SCT067 21/09 A2960 RMK
                 SLP025 DENSITY ALT 1000FT =
2018-06-19 18:00 METAR CYFC 191800Z AUTO 29013G22KT 260V330 9SM SCT049 19/08 A2960 RMK SLP026
                 DENSITY ALT 900FT =
2018-06-19 17:00 METAR CYFC 191700Z AUTO 31019G28KT 9SM SCT044 19/08 A2959 RMK SLP022 DENSITY ALT
                 800FT =
2018-06-19 16:00 METAR CYFC 191600Z AUTO 32014G23KT 250V330 9SM BKN044 19/09 A2958 RMK SLP018
                 DENSITY ALT 900FT =
2018-06-19 15:00 METAR CYFC 191500Z AUTO 31017G22KT 9SM BKN042 OVC048 19/11 A2957 RMK SLP015
                 DENSITY ALT 900FT =
2018-06-19 14:00 METAR CYFC 191400Z AUTO 31012G22KT 9SM BKN040 OVC048 18/11 A2956 RMK SLP011
                 DENSITY ALT 800FT =
2018-06-19 13:00 METAR CYFC 191300Z AUTO 27009KT 240V320 9SM FEW024 SCT028 OVC034 17/14 A2954 RMK
                 SLP006 DENSITY ALT 700FT =
2018-06-19 12:00 METAR CYFC 191200Z AUTO 30011G18KT 9SM FEW022 BKN031 18/15 A2953 RMK SLP001
                 DENSITY ALT 900FT =
2018-06-19 11:00 METAR CYFC 191100Z AUTO 30008KT 9SM CLR 18/16 A2950 RMK SLP992 DENSITY ALT 900FT
                 =
2018-06-19 10:00 METAR CYFC 191000Z AUTO 30008KT 9SM CLR 18/16 A2948 RMK SLP984 DENSITY ALT 800FT
                 =
2018-06-19 09:00 METAR CYFC 190900Z AUTO 30006KT 9SM SCT095 17/16 A2945 RMK SLP975 DENSITY ALT
                 800FT =
2018-06-19 08:00 METAR CYFC 190800Z AUTO 29009KT 9SM OVC085 18/17 A2943 RMK SLP967 DENSITY ALT
                 900FT =

Support USWX by starting your Amazon purchase here.